createdAt,value
2022-12-18T00:02:48.993Z,-7.60
2022-12-18T00:05:51.903Z,-7.59
2022-12-18T00:08:57.271Z,-7.64
2022-12-18T00:11:59.133Z,-7.64
2022-12-18T00:15:01.118Z,-7.70
2022-12-18T00:18:02.803Z,-7.74
2022-12-18T00:21:09.258Z,-7.83
2022-12-18T00:24:12.169Z,-7.82
2022-12-18T00:27:13.767Z,-7.83
2022-12-18T00:30:15.870Z,-7.82
2022-12-18T00:33:17.528Z,-7.82
2022-12-18T00:36:22.777Z,-7.79
2022-12-18T00:39:27.234Z,-7.80
2022-12-18T00:42:47.871Z,-7.79
2022-12-18T00:45:49.869Z,-7.82
2022-12-18T00:48:51.681Z,-7.79
2022-12-18T00:51:59.142Z,-7.76
2022-12-18T00:55:05.957Z,-7.78
2022-12-18T00:58:09.215Z,-7.79
2022-12-18T01:01:13.871Z,-7.85
2022-12-18T01:04:15.962Z,-7.82
2022-12-18T01:07:20.650Z,-7.81
2022-12-18T01:10:22.388Z,-7.82
2022-12-18T01:13:24.209Z,-7.82
2022-12-18T01:16:25.929Z,-7.83
2022-12-18T01:19:27.840Z,-7.78
2022-12-18T01:22:30.178Z,-7.76
2022-12-18T01:25:31.963Z,-7.80
2022-12-18T01:28:33.753Z,-7.76
2022-12-18T01:31:35.672Z,-7.76
2022-12-18T01:34:38.699Z,-7.78
2022-12-18T01:37:40.627Z,-7.74
2022-12-18T01:40:42.406Z,-7.75
2022-12-18T01:43:59.426Z,-7.81
2022-12-18T01:47:01.576Z,-7.86
2022-12-18T01:50:10.323Z,-7.84
2022-12-18T01:53:20.041Z,-7.86
2022-12-18T01:56:23.281Z,-7.86
2022-12-18T01:59:25.235Z,-7.87
2022-12-18T02:02:31.481Z,-7.88
2022-12-18T02:05:50.173Z,-7.84
2022-12-18T02:09:03.767Z,-7.85
2022-12-18T02:12:54.041Z,-7.85
2022-12-18T02:16:14.784Z,-7.87
2022-12-18T02:19:54.106Z,-7.80
2022-12-18T02:23:20.687Z,-7.78
2022-12-18T02:26:38.991Z,-7.83
2022-12-18T02:29:57.661Z,-7.82
2022-12-18T02:33:03.014Z,-7.82
2022-12-18T02:36:06.956Z,-7.87
2022-12-18T02:39:12.138Z,-7.83
2022-12-18T02:42:20.295Z,-7.79
2022-12-18T02:45:23.247Z,-7.88
2022-12-18T02:48:36.324Z,-7.90
2022-12-18T02:51:46.779Z,-7.91
2022-12-18T02:54:53.539Z,-7.93
2022-12-18T02:57:59.455Z,-7.95
2022-12-18T03:01:44.309Z,-7.98
2022-12-18T03:05:09.966Z,-8.00
2022-12-18T03:08:20.086Z,-7.99
2022-12-18T03:11:43.680Z,-7.95
2022-12-18T03:14:50.431Z,-7.93
2022-12-18T03:18:22.694Z,-7.95
2022-12-18T03:21:49.999Z,-7.97
2022-12-18T03:24:54.994Z,-7.94
2022-12-18T03:27:59.879Z,-7.95
2022-12-18T03:31:05.360Z,-7.96
2022-12-18T03:34:12.612Z,-8.03
2022-12-18T03:37:18.932Z,-8.05
2022-12-18T03:40:30.963Z,-8.08
2022-12-18T03:44:00.206Z,-8.12
2022-12-18T03:47:17.095Z,-8.19
2022-12-18T03:50:27.166Z,-8.19
2022-12-18T03:53:47.058Z,-8.19
2022-12-18T03:56:57.054Z,-8.21
2022-12-18T04:00:04.574Z,-8.22
2022-12-18T04:03:17.877Z,-8.19
2022-12-18T04:06:23.382Z,-8.17
2022-12-18T04:09:27.161Z,-8.17
2022-12-18T04:12:30.811Z,-8.12
2022-12-18T04:15:36.417Z,-8.15
2022-12-18T04:18:40.211Z,-8.09
2022-12-18T04:21:43.705Z,-8.12
2022-12-18T04:24:47.368Z,-8.10
2022-12-18T04:27:57.400Z,-8.15
2022-12-18T04:30:59.182Z,-8.15
2022-12-18T04:34:01.037Z,-8.15
2022-12-18T04:37:05.354Z,-8.14
2022-12-18T04:40:11.296Z,-8.16
2022-12-18T04:43:17.629Z,-8.15
2022-12-18T04:46:19.529Z,-8.20
2022-12-18T04:49:21.372Z,-8.20
2022-12-18T04:52:28.790Z,-8.17
2022-12-18T04:55:31.361Z,-8.17
2022-12-18T04:58:33.384Z,-8.14
2022-12-18T05:01:35.565Z,-8.14
2022-12-18T05:04:38.620Z,-8.19
2022-12-18T05:07:40.326Z,-8.17
2022-12-18T05:10:43.227Z,-8.15
2022-12-18T05:13:45.738Z,-8.18
2022-12-18T05:16:47.573Z,-8.26
2022-12-18T05:19:49.224Z,-8.29
2022-12-18T05:22:51.708Z,-8.35
2022-12-18T05:25:54.504Z,-8.29
2022-12-18T05:28:56.342Z,-8.23
2022-12-18T05:31:57.994Z,-8.22
2022-12-18T05:34:59.812Z,-8.26
2022-12-18T05:38:01.599Z,-8.29
2022-12-18T05:41:04.191Z,-8.21
2022-12-18T05:44:06.140Z,-8.21
2022-12-18T05:47:09.116Z,-8.23
2022-12-18T05:50:10.921Z,-8.21
2022-12-18T05:53:14.257Z,-8.18
2022-12-18T05:56:19.432Z,-8.16
2022-12-18T05:59:21.375Z,-8.13
2022-12-18T06:02:23.472Z,-8.11
2022-12-18T06:05:25.371Z,-8.05
2022-12-18T06:08:27.316Z,-8.10
2022-12-18T06:11:28.940Z,-8.08
2022-12-18T06:14:30.915Z,-8.02
2022-12-18T06:17:33.851Z,-8.02
2022-12-18T06:20:37.676Z,-8.09
2022-12-18T06:23:39.884Z,-8.12
2022-12-18T06:26:42.290Z,-8.12
2022-12-18T06:29:48.160Z,-8.07
2022-12-18T06:32:56.368Z,-8.08
2022-12-18T06:36:06.719Z,-8.10
2022-12-18T06:39:08.811Z,-8.06
2022-12-18T06:42:11.106Z,-8.07
2022-12-18T06:45:12.728Z,-8.08
2022-12-18T06:48:14.521Z,-8.06
2022-12-18T06:51:25.492Z,-8.07
2022-12-18T06:54:27.062Z,-8.08
2022-12-18T06:57:28.818Z,-8.05
2022-12-18T07:00:30.586Z,-8.03
2022-12-18T07:03:32.699Z,-8.03
2022-12-18T07:06:34.448Z,-8.02
2022-12-18T07:09:36.465Z,-7.91
2022-12-18T07:12:38.190Z,-7.95
2022-12-18T07:15:39.747Z,-7.99
2022-12-18T07:18:41.628Z,-7.99
2022-12-18T07:21:43.554Z,-7.89
2022-12-18T07:24:45.413Z,-7.92
2022-12-18T07:27:47.043Z,-7.82
2022-12-18T07:30:48.786Z,-7.84
2022-12-18T07:33:51.473Z,-7.85
2022-12-18T07:36:53.083Z,-7.81
2022-12-18T07:39:54.715Z,-7.87
2022-12-18T07:42:56.460Z,-7.92
2022-12-18T07:45:58.110Z,-7.89
2022-12-18T07:48:59.916Z,-7.86
2022-12-18T07:52:02.666Z,-7.77
2022-12-18T07:55:05.048Z,-7.78
2022-12-18T07:58:07.097Z,-7.69
2022-12-18T08:01:11.793Z,-7.62
2022-12-18T08:04:13.486Z,-7.54
2022-12-18T08:07:15.487Z,-7.43
2022-12-18T08:10:18.001Z,-7.50
2022-12-18T08:13:19.608Z,-7.49
2022-12-18T08:16:22.826Z,-7.44
2022-12-18T08:19:24.479Z,-7.42
2022-12-18T08:22:26.289Z,-7.22
2022-12-18T08:25:28.162Z,-7.08
2022-12-18T08:28:29.895Z,-7.05
2022-12-18T08:31:32.322Z,-7.05
2022-12-18T08:34:34.306Z,-7.00
2022-12-18T08:37:36.025Z,-6.99
2022-12-18T08:40:40.308Z,-6.93
2022-12-18T08:44:00.966Z,-6.89
2022-12-18T08:47:03.293Z,-6.82
2022-12-18T08:50:05.222Z,-6.73
2022-12-18T08:53:07.255Z,-6.71
2022-12-18T08:56:09.074Z,-6.79
2022-12-18T08:59:18.787Z,-6.81
2022-12-18T09:02:21.438Z,-6.85
2022-12-18T09:05:23.508Z,-6.84
2022-12-18T09:08:25.554Z,-6.79
2022-12-18T09:11:28.889Z,-6.76
2022-12-18T09:14:31.216Z,-6.70
2022-12-18T09:17:32.830Z,-6.63
2022-12-18T09:20:34.606Z,-6.55
2022-12-18T09:23:36.318Z,-6.53
2022-12-18T09:26:38.683Z,-6.47
2022-12-18T09:29:41.624Z,-6.45
2022-12-18T09:32:43.259Z,-6.41
2022-12-18T09:35:46.424Z,-6.32
2022-12-18T09:38:48.148Z,-6.20
2022-12-18T09:41:55.804Z,-5.98
2022-12-18T09:44:59.491Z,-5.81
2022-12-18T09:48:01.501Z,-5.67
2022-12-18T09:51:15.917Z,-5.49
2022-12-18T09:54:28.163Z,-5.29
2022-12-18T09:57:34.611Z,-5.12
2022-12-18T10:00:36.832Z,-4.98
2022-12-18T10:03:38.699Z,-4.87
2022-12-18T10:06:46.730Z,-4.79
2022-12-18T10:10:23.906Z,-4.67
2022-12-18T10:13:52.911Z,-4.49
2022-12-18T10:17:03.686Z,-4.32
2022-12-18T10:20:24.433Z,-4.26
2022-12-18T10:23:26.222Z,-4.20
2022-12-18T10:26:27.792Z,-4.14
2022-12-18T10:29:29.786Z,-4.06
2022-12-18T10:32:31.819Z,-3.98
2022-12-18T10:35:34.046Z,-3.91
2022-12-18T10:38:36.012Z,-3.84
2022-12-18T10:41:38.764Z,-3.72
2022-12-18T10:44:40.482Z,-3.63
2022-12-18T10:47:49.567Z,-3.58
2022-12-18T10:54:25.464Z,-3.54
2022-12-18T10:57:27.172Z,-3.48
2022-12-18T11:00:31.319Z,-3.43
2022-12-18T11:04:06.744Z,-3.32
2022-12-18T11:07:09.497Z,-3.17
2022-12-18T11:10:18.587Z,-3.05
2022-12-18T11:13:23.789Z,-2.95
2022-12-18T11:16:25.979Z,-2.92
2022-12-18T11:19:41.597Z,-2.87
2022-12-18T11:22:43.771Z,-2.87
2022-12-18T11:25:54.907Z,-2.91
2022-12-18T11:29:19.219Z,-2.94
2022-12-18T11:32:38.893Z,-2.99
2022-12-18T11:35:51.096Z,-3.03
2022-12-18T11:38:57.766Z,-3.02
2022-12-18T11:42:11.718Z,-3.05
2022-12-18T11:45:13.924Z,-3.00
2022-12-18T11:48:57.125Z,-3.01
2022-12-18T11:52:20.669Z,-3.04
2022-12-18T11:55:49.531Z,-3.07
2022-12-18T11:59:02.141Z,-3.12
2022-12-18T12:02:31.977Z,-3.22
2022-12-18T12:05:44.995Z,-3.36
2022-12-18T12:09:01.632Z,-3.45
2022-12-18T12:12:25.074Z,-3.54
2022-12-18T12:15:37.041Z,-3.62
2022-12-18T12:18:47.906Z,-3.69
2022-12-18T12:21:54.354Z,-3.73
2022-12-18T12:25:18.732Z,-3.72
2022-12-18T12:29:04.325Z,-3.71
2022-12-18T12:32:21.220Z,-3.59
2022-12-18T12:35:54.957Z,-3.45
2022-12-18T12:39:00.944Z,-3.33
2022-12-18T12:42:24.170Z,-3.26
2022-12-18T12:45:52.026Z,-3.16
2022-12-18T12:48:58.795Z,-3.11
2022-12-18T12:52:13.655Z,-3.05
2022-12-18T12:58:54.974Z,-2.94
2022-12-18T13:02:21.035Z,-2.89
2022-12-18T13:05:50.395Z,-2.84
2022-12-18T13:08:56.997Z,-2.81
2022-12-18T13:12:30.632Z,-2.77
2022-12-18T13:13:43.747Z,-3.04
2022-12-18T13:15:40.634Z,-2.76
2022-12-18T13:18:52.931Z,-2.74
2022-12-18T13:21:56.943Z,-2.76
2022-12-18T13:24:58.816Z,-2.75
2022-12-18T13:28:15.127Z,-2.75
2022-12-18T13:31:32.220Z,-2.83
2022-12-18T13:34:34.058Z,-2.87
2022-12-18T13:37:52.147Z,-2.91
2022-12-18T13:41:00.463Z,-2.93
2022-12-18T13:44:41.631Z,-2.94
2022-12-18T13:47:44.790Z,-2.96
2022-12-18T13:51:03.139Z,-3.00
2022-12-18T13:54:38.193Z,-3.09
2022-12-18T13:57:41.863Z,-3.13
2022-12-18T14:00:44.131Z,-3.17
2022-12-18T14:03:47.881Z,-3.22
2022-12-18T14:06:53.409Z,-3.30
2022-12-18T14:10:12.067Z,-3.36
2022-12-18T14:13:33.429Z,-3.39
2022-12-18T14:16:35.611Z,-3.46
2022-12-18T14:19:43.363Z,-3.54
2022-12-18T14:22:48.053Z,-3.59
2022-12-18T14:25:49.658Z,-3.69
2022-12-18T14:28:51.385Z,-3.72
2022-12-18T14:32:23.716Z,-3.79
2022-12-18T14:35:25.334Z,-3.88
2022-12-18T14:38:40.827Z,-3.96
2022-12-18T14:41:42.727Z,-3.97
2022-12-18T14:45:12.978Z,-3.98
2022-12-18T14:48:37.438Z,-4.01
2022-12-18T14:51:40.268Z,-4.10
2022-12-18T14:54:47.975Z,-4.11
2022-12-18T14:57:57.519Z,-4.15
2022-12-18T15:00:59.769Z,-4.21
2022-12-18T15:04:03.134Z,-4.20
2022-12-18T15:07:23.441Z,-4.27
2022-12-18T15:10:30.679Z,-4.26
2022-12-18T15:13:32.892Z,-4.28
2022-12-18T15:16:37.498Z,-4.26
2022-12-18T15:19:41.658Z,-4.30
2022-12-18T15:22:43.253Z,-4.41
2022-12-18T15:25:45.744Z,-4.51
2022-12-18T15:28:53.114Z,-4.58
2022-12-18T15:32:21.102Z,-4.62
2022-12-18T15:35:25.442Z,-4.67
2022-12-18T15:38:29.250Z,-4.74
2022-12-18T15:41:34.839Z,-4.81
2022-12-18T15:44:37.915Z,-4.80
2022-12-18T15:47:40.319Z,-4.87
2022-12-18T15:50:41.953Z,-4.88
2022-12-18T15:53:44.695Z,-4.94
2022-12-18T15:57:05.066Z,-4.96
2022-12-18T16:00:07.815Z,-4.93
2022-12-18T16:03:10.662Z,-4.90
2022-12-18T16:06:12.567Z,-4.86
2022-12-18T16:09:14.254Z,-4.76
2022-12-18T16:12:19.409Z,-4.66
2022-12-18T16:15:24.711Z,-4.61
2022-12-18T16:18:26.725Z,-4.45
2022-12-18T16:21:33.784Z,-4.49
2022-12-18T16:24:37.238Z,-4.53
2022-12-18T16:27:39.046Z,-4.52
2022-12-18T16:30:41.270Z,-4.55
2022-12-18T16:33:43.854Z,-4.55
2022-12-18T16:36:47.757Z,-4.53
2022-12-18T16:39:49.414Z,-4.58
2022-12-18T16:42:51.217Z,-4.50
2022-12-18T16:45:57.843Z,-4.45
2022-12-18T16:49:00.676Z,-4.38
2022-12-18T16:52:03.206Z,-4.28
2022-12-18T16:55:05.417Z,-4.23
2022-12-18T16:58:07.421Z,-4.15
2022-12-18T17:01:11.209Z,-4.13
2022-12-18T17:04:13.260Z,-3.96
2022-12-18T17:07:16.444Z,-3.84
2022-12-18T17:10:18.061Z,-3.71
2022-12-18T17:13:25.472Z,-3.69
2022-12-18T17:16:27.572Z,-3.55
2022-12-18T17:19:29.711Z,-3.47
2022-12-18T17:22:31.561Z,-3.37
2022-12-18T17:25:33.218Z,-3.40
2022-12-18T17:28:35.124Z,-3.33
2022-12-18T17:31:36.873Z,-3.28
2022-12-18T17:34:38.669Z,-3.20
2022-12-18T17:37:40.585Z,-3.19
2022-12-18T17:40:46.229Z,-3.18
2022-12-18T17:43:57.625Z,-3.13
2022-12-18T17:46:59.203Z,-3.11
2022-12-18T17:50:00.953Z,-3.02
2022-12-18T17:53:03.335Z,-3.03
2022-12-18T17:56:07.173Z,-2.92
2022-12-18T17:59:09.813Z,-2.89
2022-12-18T18:02:12.081Z,-2.87
2022-12-18T18:05:14.161Z,-2.88
2022-12-18T18:08:19.982Z,-2.75
2022-12-18T18:11:42.874Z,-2.77
2022-12-18T18:14:45.066Z,-2.79
2022-12-18T18:17:47.134Z,-2.80
2022-12-18T18:20:48.946Z,-2.75
2022-12-18T18:23:50.921Z,-2.78
2022-12-18T18:26:56.511Z,-2.71
2022-12-18T18:29:58.548Z,-2.74
2022-12-18T18:33:00.250Z,-2.73
2022-12-18T18:36:02.162Z,-2.72
2022-12-18T18:39:04.528Z,-2.75
2022-12-18T18:42:06.516Z,-2.72
2022-12-18T18:45:08.703Z,-2.72
2022-12-18T18:48:14.259Z,-2.71
2022-12-18T18:51:21.216Z,-2.71
2022-12-18T18:54:24.523Z,-2.71
2022-12-18T18:57:30.266Z,-2.70
2022-12-18T19:00:32.345Z,-2.66
2022-12-18T19:03:35.863Z,-2.72
2022-12-18T19:06:37.613Z,-2.70
2022-12-18T19:09:40.613Z,-2.74
2022-12-18T19:13:00.820Z,-2.71
2022-12-18T19:16:10.609Z,-2.62
2022-12-18T19:19:13.502Z,-2.66
2022-12-18T19:22:16.751Z,-2.60
2022-12-18T19:25:18.499Z,-2.57
2022-12-18T19:28:25.821Z,-2.60
2022-12-18T19:31:35.576Z,-2.62
2022-12-18T19:34:40.839Z,-2.67
2022-12-18T19:37:43.959Z,-2.73
2022-12-18T19:40:45.871Z,-2.67
2022-12-18T19:43:48.481Z,-2.62
2022-12-18T19:46:51.640Z,-2.60
2022-12-18T19:49:53.308Z,-2.57
2022-12-18T19:52:54.990Z,-2.51
2022-12-18T19:55:56.648Z,-2.51
2022-12-18T19:58:58.419Z,-2.50
2022-12-18T20:02:00.141Z,-2.52
2022-12-18T20:05:08.041Z,-2.53
2022-12-18T20:08:10.945Z,-2.58
2022-12-18T20:11:13.298Z,-2.59
2022-12-18T20:14:23.186Z,-2.60
2022-12-18T20:17:25.318Z,-2.67
2022-12-18T20:20:29.832Z,-2.66
2022-12-18T20:23:34.512Z,-2.61
2022-12-18T20:26:38.936Z,-2.57
2022-12-18T20:29:41.025Z,-2.61
2022-12-18T20:32:42.792Z,-2.62
2022-12-18T20:35:44.597Z,-2.62
2022-12-18T20:38:46.779Z,-2.54
2022-12-18T20:41:51.018Z,-2.51
2022-12-18T20:44:54.101Z,-2.58
2022-12-18T20:47:59.480Z,-2.59
2022-12-18T20:51:06.045Z,-2.55
2022-12-18T20:54:11.607Z,-2.46
2022-12-18T20:57:14.176Z,-2.46
2022-12-18T21:00:20.081Z,-2.43
2022-12-18T21:03:23.092Z,-2.45
2022-12-18T21:06:25.176Z,-2.46
2022-12-18T21:09:26.841Z,-2.42
2022-12-18T21:12:42.826Z,-2.46
2022-12-18T21:15:54.167Z,-2.52
2022-12-18T21:18:55.938Z,-2.53
2022-12-18T21:21:58.291Z,-2.42
2022-12-18T21:25:00.330Z,-2.41
2022-12-18T21:28:02.248Z,-2.41
2022-12-18T21:31:04.351Z,-2.33
2022-12-18T21:34:07.266Z,-2.34
2022-12-18T21:37:08.865Z,-2.42
2022-12-18T21:40:11.429Z,-2.53
2022-12-18T21:43:39.476Z,-2.61
2022-12-18T21:46:48.948Z,-2.62
2022-12-18T21:49:54.768Z,-2.64
2022-12-18T21:52:56.503Z,-2.65
2022-12-18T21:55:59.355Z,-2.68
2022-12-18T21:59:01.019Z,-2.73
2022-12-18T22:02:10.174Z,-2.76
2022-12-18T22:05:11.946Z,-2.80
2022-12-18T22:08:13.804Z,-2.76
2022-12-18T22:11:15.696Z,-2.70
2022-12-18T22:14:20.372Z,-2.70
2022-12-18T22:17:22.042Z,-2.66
2022-12-18T22:20:24.524Z,-2.64
2022-12-18T22:23:28.653Z,-2.59
2022-12-18T22:26:39.313Z,-2.57
2022-12-18T22:30:00.351Z,-2.48
2022-12-18T22:33:02.411Z,-2.42
2022-12-18T22:36:10.383Z,-2.43
2022-12-18T22:39:23.801Z,-2.34
2022-12-18T22:42:25.757Z,-2.39
2022-12-18T22:45:27.924Z,-2.38
2022-12-18T22:48:30.364Z,-2.34
2022-12-18T22:51:32.392Z,-2.39
2022-12-18T22:54:34.157Z,-2.38
2022-12-18T22:57:35.808Z,-2.34
2022-12-18T23:00:41.556Z,-2.35
2022-12-18T23:03:43.619Z,-2.34
2022-12-18T23:06:45.920Z,-2.35
2022-12-18T23:09:49.372Z,-2.28
2022-12-18T23:12:52.435Z,-2.32
2022-12-18T23:15:55.493Z,-2.36
2022-12-18T23:18:57.345Z,-2.40
2022-12-18T23:21:59.213Z,-2.41
2022-12-18T23:25:01.233Z,-2.42
2022-12-18T23:28:03.119Z,-2.44
2022-12-18T23:31:20.703Z,-2.46
2022-12-18T23:34:22.544Z,-2.46
2022-12-18T23:37:57.058Z,-2.43
2022-12-18T23:40:45.859Z,-2.39
2022-12-18T23:43:50.199Z,-2.34
2022-12-18T23:46:51.983Z,-2.29
2022-12-18T23:49:53.802Z,-2.25
2022-12-18T23:52:56.012Z,-2.18
2022-12-18T23:56:02.507Z,-2.10
2022-12-18T23:59:05.646Z,-2.05
